Time;durP1;ratioP1;P1;durP2;ratioP2;P2;SDS_P1;SDS_P2;PMS_P1;PMS_P2;Temp;Humidity;BMP_temperature;BMP_pressure;BME280_temperature;BME280_humidity;BME280_pressure;Samples;Min_cycle;Max_cycle;Signal;HPM_P1;HPM_P2
2023/07/24 00:02:14;;;;;;;5.43;4.07;;;18.00;99.90;;;;;;5049191;28;20623;-62
2023/07/24 00:04:42;;;;;;;4.73;4.10;;;18.00;99.90;;;;;;5045523;28;20238;-62
2023/07/24 00:07:11;;;;;;;5.33;3.73;;;18.00;99.90;;;;;;5050728;28;20192;-62
2023/07/24 00:09:39;;;;;;;4.00;3.57;;;18.00;99.90;;;;;;5049333;28;20275;-62
2023/07/24 00:12:08;;;;;;;3.47;3.17;;;17.90;99.90;;;;;;5049308;28;20223;-62
2023/07/24 00:14:38;;;;;;;3.37;2.97;;;17.90;99.90;;;;;;5055279;28;20207;-62
2023/07/24 00:17:07;;;;;;;4.57;2.80;;;17.90;99.90;;;;;;5045520;28;20323;-62
2023/07/24 00:19:35;;;;;;;2.90;2.70;;;17.90;99.90;;;;;;5049706;28;20227;-62
2023/07/24 00:22:04;;;;;;;3.33;2.70;;;17.90;99.90;;;;;;5047945;28;20298;-62
2023/07/24 00:24:32;;;;;;;2.80;2.57;;;17.90;99.90;;;;;;5045557;28;20232;-62
2023/07/24 00:27:01;;;;;;;2.70;2.60;;;17.90;99.90;;;;;;5044070;28;20205;-62
2023/07/24 00:29:30;;;;;;;4.53;2.67;;;17.90;99.90;;;;;;5039731;28;20193;-62
2023/07/24 00:31:59;;;;;;;3.20;2.80;;;17.90;99.90;;;;;;5057503;28;20212;-62
2023/07/24 00:34:28;;;;;;;3.40;3.10;;;17.90;99.90;;;;;;5050126;28;20853;-62
2023/07/24 00:36:56;;;;;;;4.53;3.00;;;17.80;99.90;;;;;;5051882;28;20208;-62
2023/07/24 00:39:28;;;;;;;3.07;2.83;;;17.90;99.90;;;;;;5052384;28;20196;-62
2023/07/24 00:41:56;;;;;;;4.53;2.97;;;17.80;99.90;;;;;;5055139;28;20727;-62
2023/07/24 00:44:25;;;;;;;3.53;3.27;;;17.80;99.90;;;;;;5048338;28;20193;-62
2023/07/24 00:46:54;;;;;;;3.00;2.90;;;17.80;99.90;;;;;;5054677;28;20189;-62
2023/07/24 00:49:25;;;;;;;3.43;3.13;;;17.80;99.90;;;;;;5047365;28;20216;-62
2023/07/24 00:51:54;;;;;;;2.77;2.67;;;17.90;99.90;;;;;;5051178;28;20200;-62
2023/07/24 00:54:24;;;;;;;5.23;3.00;;;17.80;99.90;;;;;;5057563;28;20282;-62
2023/07/24 00:56:52;;;;;;;3.40;3.03;;;17.80;99.90;;;;;;5055497;28;20188;-62
2023/07/24 00:59:22;;;;;;;3.43;2.90;;;17.80;99.90;;;;;;5053324;28;20197;-63
2023/07/24 01:01:51;;;;;;;5.33;2.90;;;17.80;99.90;;;;;;5044772;28;20192;-63
2023/07/24 01:04:19;;;;;;;3.13;2.93;;;17.80;99.90;;;;;;5048381;28;20661;-62
2023/07/24 01:06:49;;;;;;;2.90;2.80;;;17.80;99.90;;;;;;5053008;28;20181;-63
2023/07/24 01:09:17;;;;;;;4.07;2.83;;;17.80;99.90;;;;;;5046517;28;20224;-63
2023/07/24 01:11:48;;;;;;;3.67;2.80;;;17.80;99.90;;;;;;5046743;28;20221;-63
2023/07/24 01:14:24;;;;;;;3.00;2.80;;;17.70;99.90;;;;;;5055196;28;20185;-63
2023/07/24 01:16:54;;;;;;;2.77;2.57;;;17.50;99.90;;;;;;5051128;28;20204;-63
2023/07/24 01:19:36;;;;;;;2.57;2.43;;;17.40;99.90;;;;;;5046201;28;20194;-63
2023/07/24 01:22:13;;;;;;;3.67;2.87;;;17.40;99.90;;;;;;5047962;28;20197;-62
2023/07/24 01:24:58;;;;;;;2.87;2.70;;;17.30;99.90;;;;;;5050090;28;20208;-63
2023/07/24 01:27:28;;;;;;;2.90;2.80;;;17.20;99.90;;;;;;5046357;28;20918;-63
2023/07/24 01:29:56;;;;;;;3.00;2.80;;;17.20;99.90;;;;;;5038201;28;20196;-63
2023/07/24 01:32:25;;;;;;;3.07;2.87;;;17.20;99.90;;;;;;5042280;28;20308;-63
2023/07/24 01:34:54;;;;;;;3.47;2.57;;;17.10;99.90;;;;;;5064413;28;20192;-63
2023/07/24 01:37:23;;;;;;;2.90;2.70;;;17.10;99.90;;;;;;5037765;28;20224;-63
2023/07/24 01:39:53;;;;;;;3.27;2.90;;;17.10;99.90;;;;;;5042502;28;20270;-62
2023/07/24 01:42:21;;;;;;;3.03;2.87;;;17.10;99.90;;;;;;5047052;28;20188;-62
2023/07/24 01:44:54;;;;;;;3.37;3.10;;;17.00;99.90;;;;;;5052257;28;20283;-63
2023/07/24 01:47:22;;;;;;;2.67;2.57;;;17.00;99.90;;;;;;5048092;28;20666;-62
2023/07/24 01:49:51;;;;;;;3.00;2.80;;;17.00;99.90;;;;;;5047152;28;20217;-62
2023/07/24 01:52:19;;;;;;;3.63;3.03;;;17.00;99.90;;;;;;5050637;28;20318;-62
2023/07/24 01:54:47;;;;;;;3.53;2.33;;;17.00;99.90;;;;;;5043944;28;20184;-62
2023/07/24 01:57:16;;;;;;;3.00;2.80;;;17.00;99.90;;;;;;5044071;28;20197;-62
2023/07/24 01:59:44;;;;;;;4.77;2.70;;;17.00;99.90;;;;;;5050696;28;20203;-62
2023/07/24 02:02:14;;;;;;;2.67;2.47;;;16.90;99.90;;;;;;5049704;28;20841;-62
2023/07/24 02:04:47;;;;;;;3.23;2.70;;;16.90;99.90;;;;;;5045946;28;20287;-62
2023/07/24 02:07:15;;;;;;;2.63;2.43;;;17.00;99.90;;;;;;5044119;28;20243;-62
2023/07/24 02:09:44;;;;;;;2.27;2.17;;;17.00;99.90;;;;;;5041492;28;20195;-62
2023/07/24 02:12:12;;;;;;;2.40;2.30;;;17.00;99.90;;;;;;5046723;28;20220;-62
2023/07/24 02:14:40;;;;;;;2.77;2.57;;;17.00;99.90;;;;;;5048434;28;20219;-62
2023/07/24 02:17:09;;;;;;;3.30;2.43;;;17.00;99.90;;;;;;5049210;28;20639;-62
2023/07/24 02:19:38;;;;;;;2.60;2.50;;;17.00;99.90;;;;;;5048834;28;20193;-62
2023/07/24 02:22:07;;;;;;;2.50;2.40;;;17.00;99.90;;;;;;5048375;28;20215;-62
2023/07/24 02:24:35;;;;;;;2.80;2.63;;;17.00;99.90;;;;;;5044763;28;20192;-62
2023/07/24 02:27:04;;;;;;;3.17;2.97;;;17.10;99.90;;;;;;5044874;28;20681;-62
2023/07/24 02:29:35;;;;;;;2.80;2.60;;;17.10;99.90;;;;;;5048782;28;20197;-62
2023/07/24 02:32:04;;;;;;;2.47;2.37;;;17.10;99.90;;;;;;5045669;28;20201;-62
2023/07/24 02:34:33;;;;;;;2.70;2.50;;;17.10;99.90;;;;;;5049034;28;20287;-62
2023/07/24 02:37:02;;;;;;;2.57;2.40;;;17.10;99.90;;;;;;5054088;28;20307;-62
2023/07/24 02:39:31;;;;;;;2.33;2.23;;;17.10;99.90;;;;;;5049796;28;20270;-62
2023/07/24 02:41:59;;;;;;;2.83;2.63;;;17.10;99.90;;;;;;5048257;28;20283;-62
2023/07/24 02:44:27;;;;;;;2.40;2.30;;;17.10;99.90;;;;;;5055328;28;20643;-62
2023/07/24 02:46:56;;;;;;;2.73;2.53;;;17.10;99.90;;;;;;5046907;28;20320;-62
2023/07/24 02:49:24;;;;;;;2.73;2.53;;;17.10;99.90;;;;;;5053704;28;20671;-61
2023/07/24 02:51:52;;;;;;;3.40;2.80;;;17.10;99.90;;;;;;5048269;28;20696;-62
2023/07/24 02:54:22;;;;;;;2.73;2.63;;;17.00;99.90;;;;;;5059972;28;20287;-63
2023/07/24 02:56:51;;;;;;;3.53;3.23;;;16.90;99.90;;;;;;5051726;28;20283;-63
2023/07/24 02:59:19;;;;;;;3.13;2.93;;;16.90;99.90;;;;;;5048981;28;20199;-62
2023/07/24 03:01:47;;;;;;;3.67;3.10;;;16.90;99.90;;;;;;5045853;28;20193;-63
2023/07/24 03:04:16;;;;;;;3.30;3.10;;;16.90;99.90;;;;;;5044355;28;20188;-62
2023/07/24 03:06:44;;;;;;;2.90;2.77;;;16.90;99.90;;;;;;5052948;28;20212;-63
2023/07/24 03:09:13;;;;;;;3.37;2.70;;;16.90;99.90;;;;;;5056030;28;20187;-62
2023/07/24 03:11:42;;;;;;;6.07;3.00;;;16.80;99.90;;;;;;5046503;28;20193;-63
2023/07/24 03:14:10;;;;;;;2.90;2.70;;;16.80;99.90;;;;;;5043100;28;20196;-62
2023/07/24 03:16:39;;;;;;;2.80;2.70;;;16.70;99.90;;;;;;5041325;28;20188;-62
2023/07/24 03:19:07;;;;;;;2.80;2.70;;;16.60;99.90;;;;;;5042358;28;20205;-62
2023/07/24 03:21:35;;;;;;;2.60;2.50;;;16.50;99.90;;;;;;5050362;28;20215;-61
2023/07/24 03:24:04;;;;;;;2.83;2.73;;;16.30;99.90;;;;;;5045290;28;20235;-62
2023/07/24 03:26:32;;;;;;;5.23;2.90;;;16.30;99.90;;;;;;5048072;28;20550;-62
2023/07/24 03:29:02;;;;;;;3.03;2.83;;;16.30;99.90;;;;;;5035495;28;20668;-63
2023/07/24 03:31:30;;;;;;;3.23;2.80;;;16.20;99.90;;;;;;5044967;28;20196;-62
2023/07/24 03:33:59;;;;;;;2.80;2.60;;;16.20;99.90;;;;;;5043617;28;20223;-62
2023/07/24 03:36:27;;;;;;;3.57;3.27;;;16.10;99.90;;;;;;5050093;28;20207;-61
2023/07/24 03:38:56;;;;;;;3.00;2.80;;;16.10;99.90;;;;;;5045177;28;20208;-61
2023/07/24 03:41:24;;;;;;;4.20;2.90;;;16.00;99.90;;;;;;5043622;28;20188;-61
2023/07/24 03:43:52;;;;;;;3.10;2.90;;;16.00;99.90;;;;;;5045600;28;20177;-61
2023/07/24 03:46:22;;;;;;;3.60;3.30;;;15.90;99.90;;;;;;5042149;28;20475;-61
2023/07/24 03:48:50;;;;;;;2.93;2.83;;;15.90;99.90;;;;;;5041217;28;20227;-61
2023/07/24 03:51:19;;;;;;;3.40;3.20;;;15.90;99.90;;;;;;5041044;28;20184;-61
2023/07/24 03:53:47;;;;;;;3.10;2.90;;;16.00;99.90;;;;;;5052526;28;20657;-61
2023/07/24 03:56:16;;;;;;;3.30;3.00;;;16.00;99.90;;;;;;5037898;28;20193;-61
2023/07/24 03:58:46;;;;;;;5.03;3.20;;;16.00;99.90;;;;;;5044829;28;20196;-61
2023/07/24 04:01:14;;;;;;;3.30;3.00;;;16.00;99.90;;;;;;5063036;28;20201;-62
2023/07/24 04:03:44;;;;;;;3.50;3.30;;;16.00;99.90;;;;;;5035372;28;20283;-61
2023/07/24 04:06:13;;;;;;;3.43;3.13;;;15.90;99.90;;;;;;5048293;28;20229;-61
2023/07/24 04:08:41;;;;;;;3.47;3.17;;;15.80;99.90;;;;;;5043918;28;20204;-61
2023/07/24 04:11:09;;;;;;;3.23;3.03;;;15.90;99.90;;;;;;5044812;28;20561;-62
2023/07/24 04:13:37;;;;;;;3.30;3.03;;;15.90;99.90;;;;;;5039811;28;20202;-62
2023/07/24 04:16:06;;;;;;;3.20;3.00;;;15.90;99.90;;;;;;5042689;28;20193;-62
2023/07/24 04:18:34;;;;;;;4.07;3.30;;;15.90;99.90;;;;;;5037197;28;20232;-62
2023/07/24 04:21:04;;;;;;;3.40;3.20;;;15.90;99.90;;;;;;5043463;28;21956;-62
2023/07/24 04:23:32;;;;;;;3.50;3.30;;;15.90;99.90;;;;;;5040460;28;20224;-62
2023/07/24 04:26:00;;;;;;;3.60;3.30;;;15.90;99.90;;;;;;5045127;28;20200;-62
2023/07/24 04:28:29;;;;;;;3.33;3.13;;;15.90;99.90;;;;;;5041916;28;20193;-61
2023/07/24 04:31:01;;;;;;;3.70;3.40;;;15.90;99.90;;;;;;5037876;28;20211;-62
2023/07/24 04:33:29;;;;;;;3.07;2.87;;;15.90;99.90;;;;;;5046929;28;20221;-62
2023/07/24 04:36:00;;;;;;;3.60;3.30;;;16.00;99.90;;;;;;5052809;28;20527;-62
2023/07/24 04:38:30;;;;;;;3.40;3.20;;;16.00;99.90;;;;;;5053842;28;20216;-62
2023/07/24 04:40:58;;;;;;;3.40;3.20;;;16.00;99.90;;;;;;5058674;28;20207;-62
2023/07/24 04:43:26;;;;;;;5.70;3.70;;;16.00;99.90;;;;;;5056242;28;20219;-61
2023/07/24 04:45:55;;;;;;;3.33;3.00;;;16.00;99.90;;;;;;5057293;28;20206;-61
2023/07/24 04:48:23;;;;;;;3.53;3.33;;;16.00;99.90;;;;;;5050840;28;20232;-61
2023/07/24 04:50:55;;;;;;;3.80;3.50;;;16.00;99.90;;;;;;5052701;28;20208;-61
2023/07/24 04:53:24;;;;;;;3.50;3.30;;;16.10;99.90;;;;;;5053707;28;20303;-62
2023/07/24 04:55:54;;;;;;;5.13;3.40;;;16.10;99.90;;;;;;5059155;28;20184;-61
2023/07/24 04:58:22;;;;;;;3.50;3.20;;;16.00;99.90;;;;;;5060747;28;20208;-61
2023/07/24 05:00:50;;;;;;;3.10;2.90;;;16.00;99.90;;;;;;5053784;28;20197;-61
2023/07/24 05:03:19;;;;;;;3.17;2.97;;;16.00;99.90;;;;;;5049363;28;20192;-62
2023/07/24 05:05:50;;;;;;;4.53;3.20;;;16.00;99.90;;;;;;5061226;28;20284;-62
2023/07/24 05:08:18;;;;;;;4.47;3.30;;;16.00;99.90;;;;;;5046037;28;20539;-61
2023/07/24 05:10:47;;;;;;;3.80;3.43;;;16.00;99.90;;;;;;5047098;28;20192;-61
2023/07/24 05:13:16;;;;;;;3.57;3.20;;;16.10;99.90;;;;;;5046693;28;20216;-61
2023/07/24 05:15:45;;;;;;;4.23;3.33;;;16.10;99.90;;;;;;5048471;28;20200;-61
2023/07/24 05:18:13;;;;;;;4.27;3.50;;;16.10;99.90;;;;;;5045907;28;20307;-61
2023/07/24 05:20:46;;;;;;;3.53;3.10;;;16.10;99.90;;;;;;5040914;28;20278;-61
2023/07/24 05:23:14;;;;;;;3.20;3.07;;;16.10;99.90;;;;;;5045625;28;20184;-62
2023/07/24 05:25:43;;;;;;;4.00;3.30;;;16.20;99.90;;;;;;5041448;28;20246;-62
2023/07/24 05:28:11;;;;;;;3.73;3.43;;;16.20;99.90;;;;;;5041865;28;20192;-61
2023/07/24 05:30:41;;;;;;;3.63;3.33;;;16.20;99.90;;;;;;5047154;28;20543;-62
2023/07/24 05:33:09;;;;;;;4.00;3.70;;;16.20;99.90;;;;;;5042202;28;20190;-62
2023/07/24 05:35:37;;;;;;;3.60;3.30;;;16.30;99.90;;;;;;5044420;28;20214;-62
2023/07/24 05:38:06;;;;;;;3.43;3.30;;;16.30;99.90;;;;;;5052405;28;20196;-62
2023/07/24 05:40:34;;;;;;;3.20;3.07;;;16.40;99.90;;;;;;5041067;28;20199;-62
2023/07/24 05:43:03;;;;;;;3.57;3.37;;;16.40;99.90;;;;;;5044554;28;20204;-62
2023/07/24 05:45:32;;;;;;;3.37;3.17;;;16.40;99.90;;;;;;5050299;28;20651;-62
2023/07/24 05:48:01;;;;;;;3.33;3.03;;;16.40;99.90;;;;;;5046235;28;20232;-62
2023/07/24 05:50:30;;;;;;;3.90;3.60;;;16.40;99.90;;;;;;5042297;28;20196;-62
2023/07/24 05:52:58;;;;;;;4.30;3.30;;;16.50;99.90;;;;;;5053423;28;20271;-61
2023/07/24 05:55:26;;;;;;;5.20;3.73;;;16.50;99.90;;;;;;5050769;28;20205;-60
2023/07/24 05:57:55;;;;;;;3.93;3.53;;;16.60;99.90;;;;;;5039711;28;20193;-61
2023/07/24 06:00:23;;;;;;;4.73;3.53;;;16.60;99.90;;;;;;5043306;28;20204;-61
2023/07/24 06:02:52;;;;;;;4.17;3.90;;;16.60;99.90;;;;;;5043310;28;20284;-61
2023/07/24 06:05:25;;;;;;;4.70;4.20;;;16.70;99.90;;;;;;5043293;28;20202;-61
2023/07/24 06:07:53;;;;;;;4.23;3.90;;;16.80;99.90;;;;;;5041994;28;20221;-61
2023/07/24 06:10:22;;;;;;;4.50;4.20;;;16.90;99.90;;;;;;5043620;28;20288;-61
2023/07/24 06:12:50;;;;;;;7.23;4.50;;;17.00;99.90;;;;;;5044789;28;20197;-61
2023/07/24 06:15:19;;;;;;;4.40;4.10;;;17.10;99.90;;;;;;5049727;28;20208;-61
2023/07/24 06:17:47;;;;;;;4.40;4.00;;;17.10;99.90;;;;;;5051545;28;20216;-61
2023/07/24 06:20:18;;;;;;;4.97;4.50;;;17.10;99.90;;;;;;5051996;28;20195;-61
2023/07/24 06:22:48;;;;;;;4.60;4.20;;;17.10;99.90;;;;;;5045703;28;20807;-60
2023/07/24 06:25:16;;;;;;;5.47;3.77;;;17.10;99.90;;;;;;5044199;28;20191;-60
2023/07/24 06:27:45;;;;;;;5.97;4.40;;;17.00;99.90;;;;;;5052979;28;20274;-61
2023/07/24 06:30:13;;;;;;;7.20;4.30;;;17.00;99.90;;;;;;5057227;28;20680;-60
2023/07/24 06:32:44;;;;;;;6.00;4.33;;;17.00;99.90;;;;;;5050841;28;20189;-60
2023/07/24 06:35:12;;;;;;;4.50;4.10;;;17.00;99.90;;;;;;5053228;28;20201;-60
2023/07/24 06:37:41;;;;;;;5.83;4.37;;;17.00;99.90;;;;;;5069604;28;20200;-61
2023/07/24 06:40:11;;;;;;;5.40;4.00;;;17.00;99.90;;;;;;5050175;28;20192;-61
2023/07/24 06:42:40;;;;;;;5.00;4.47;;;17.00;99.90;;;;;;5056714;28;20638;-61
2023/07/24 06:45:09;;;;;;;5.27;4.77;;;17.00;99.90;;;;;;5063731;28;20193;-61
2023/07/24 06:47:38;;;;;;;5.03;4.60;;;17.00;99.90;;;;;;5051413;28;20185;-59
2023/07/24 06:50:08;;;;;;;5.50;4.70;;;16.90;99.90;;;;;;5046595;28;20195;-61
2023/07/24 06:52:36;;;;;;;4.80;4.30;;;16.90;99.90;;;;;;5052071;28;20282;-61
2023/07/24 06:55:05;;;;;;;7.30;4.50;;;16.90;99.90;;;;;;5054072;28;20245;-60
2023/07/24 06:57:35;;;;;;;4.50;4.00;;;17.00;99.90;;;;;;5058653;28;20284;-61
2023/07/24 07:00:05;;;;;;;6.13;4.23;;;16.90;99.90;;;;;;5049074;28;20200;-61
2023/07/24 07:02:33;;;;;;;4.23;3.83;;;16.90;99.90;;;;;;5050181;28;20771;-61
2023/07/24 07:05:01;;;;;;;4.50;4.10;;;17.00;99.90;;;;;;5044857;28;20231;-61
2023/07/24 07:07:30;;;;;;;4.73;4.20;;;17.20;99.90;;;;;;5050462;28;20189;-60
2023/07/24 07:09:58;;;;;;;4.50;4.10;;;17.40;99.90;;;;;;5041257;28;20651;-60
2023/07/24 07:12:27;;;;;;;6.30;4.60;;;17.50;99.90;;;;;;5055704;28;20288;-61
2023/07/24 07:14:56;;;;;;;6.63;3.87;;;17.60;99.90;;;;;;5045711;28;20205;-60
2023/07/24 07:17:25;;;;;;;5.13;4.20;;;17.60;99.90;;;;;;5054499;28;20556;-60
2023/07/24 07:19:56;;;;;;;3.70;3.50;;;17.70;99.90;;;;;;5052198;28;20200;-60
2023/07/24 07:22:24;;;;;;;5.70;3.80;;;17.80;99.90;;;;;;5038658;28;20551;-60
2023/07/24 07:24:52;;;;;;;3.93;3.63;;;17.90;99.90;;;;;;5061795;28;20280;-61
2023/07/24 07:27:21;;;;;;;3.90;3.70;;;18.10;99.90;;;;;;5047456;28;20606;-61
2023/07/24 07:29:50;;;;;;;3.90;3.50;;;18.30;99.90;;;;;;5045237;28;20595;-61
2023/07/24 07:32:20;;;;;;;3.83;3.63;;;18.40;99.90;;;;;;5048159;28;20200;-60
2023/07/24 07:34:48;;;;;;;3.80;3.60;;;18.30;99.90;;;;;;5045042;28;20311;-61
2023/07/24 07:37:16;;;;;;;4.10;3.70;;;18.40;99.90;;;;;;5046848;28;20628;-61
2023/07/24 07:39:45;;;;;;;3.63;3.40;;;18.50;99.90;;;;;;5053116;28;20205;-61
2023/07/24 07:42:13;;;;;;;3.53;3.33;;;18.50;99.90;;;;;;5052683;28;20210;-61
2023/07/24 07:44:46;;;;;;;3.80;3.53;;;18.60;99.90;;;;;;5048530;28;20196;-61
2023/07/24 07:47:14;;;;;;;3.87;3.57;;;18.70;99.90;;;;;;5049802;28;20628;-60
2023/07/24 07:49:44;;;;;;;3.80;3.50;;;18.80;99.90;;;;;;5053548;28;20225;-60
2023/07/24 07:52:16;;;;;;;3.57;3.37;;;18.90;99.90;;;;;;5046225;28;20502;-60
2023/07/24 07:54:47;;;;;;;3.20;3.00;;;18.80;99.90;;;;;;5037074;28;20211;-60
2023/07/24 07:57:16;;;;;;;3.13;3.03;;;19.10;99.90;;;;;;5055846;28;20695;-60
2023/07/24 07:59:44;;;;;;;3.30;2.67;;;19.40;99.90;;;;;;5047970;28;20205;-61
2023/07/24 08:02:13;;;;;;;3.40;3.13;;;19.40;99.90;;;;;;5048812;28;20199;-60
2023/07/24 08:04:41;;;;;;;3.00;2.80;;;19.60;99.90;;;;;;5040539;28;20267;-61
2023/07/24 08:07:11;;;;;;;3.20;3.00;;;19.50;99.90;;;;;;5050606;28;20199;-61
2023/07/24 08:09:39;;;;;;;2.83;2.73;;;19.50;99.90;;;;;;5051481;28;20199;-61
2023/07/24 08:12:09;;;;;;;2.50;2.50;;;19.40;99.90;;;;;;5041403;28;20291;-60
2023/07/24 08:14:37;;;;;;;2.60;2.50;;;19.50;99.90;;;;;;5047285;28;20231;-60
2023/07/24 08:17:06;;;;;;;3.10;2.90;;;19.40;99.90;;;;;;5053487;28;20198;-60
2023/07/24 08:19:34;;;;;;;2.87;2.67;;;19.00;99.90;;;;;;5047879;28;20195;-60
2023/07/24 08:22:04;;;;;;;2.70;2.60;;;18.90;99.90;;;;;;5050144;28;20187;-60
2023/07/24 08:24:36;;;;;;;3.20;3.00;;;18.60;99.90;;;;;;5049717;28;20190;-60
2023/07/24 08:27:05;;;;;;;3.93;3.60;;;18.40;99.90;;;;;;5049996;28;20294;-60
2023/07/24 08:29:35;;;;;;;3.30;3.20;;;18.40;99.90;;;;;;5046601;28;20211;-60
2023/07/24 08:32:05;;;;;;;3.63;3.33;;;18.30;99.90;;;;;;5041932;28;22149;-60
2023/07/24 08:34:33;;;;;;;3.00;2.87;;;18.30;99.90;;;;;;5055595;28;20192;-60
2023/07/24 08:37:02;;;;;;;3.00;2.90;;;18.10;99.90;;;;;;5051678;28;20193;-60
2023/07/24 08:39:32;;;;;;;3.10;2.83;;;18.20;99.90;;;;;;5048387;28;20291;-60
2023/07/24 08:42:09;;;;;;;2.50;2.40;;;18.40;99.90;;;;;;5049874;28;20202;-60
2023/07/24 08:44:38;;;;;;;2.33;2.23;;;18.40;99.90;;;;;;5048233;28;20193;-60
2023/07/24 08:47:11;;;;;;;2.47;2.37;;;18.80;99.90;;;;;;5050615;28;20213;-60
2023/07/24 08:49:41;;;;;;;2.60;2.50;;;19.00;99.90;;;;;;5048294;28;20222;-60
2023/07/24 08:52:10;;;;;;;2.33;2.23;;;19.60;99.90;;;;;;5052762;28;20215;-60
2023/07/24 08:54:58;;;;;;;3.23;2.77;;;19.80;99.90;;;;;;5050066;28;20188;-60
2023/07/24 08:57:30;;;;;;;2.67;2.57;;;19.80;99.90;;;;;;5058130;28;20206;-60
2023/07/24 09:00:04;;;;;;;2.73;2.53;;;19.70;99.90;;;;;;5049759;28;20202;-60
2023/07/24 09:02:33;;;;;;;2.80;2.60;;;19.60;99.90;;;;;;5051950;28;20289;-60
2023/07/24 09:05:02;;;;;;;2.70;2.30;;;19.90;99.90;;;;;;5053222;28;20615;-60
2023/07/24 09:07:31;;;;;;;2.47;2.37;;;20.50;99.90;;;;;;5049762;28;20638;-60
2023/07/24 09:10:00;;;;;;;2.83;2.70;;;21.00;99.90;;;;;;5042710;28;20201;-60
2023/07/24 09:12:29;;;;;;;2.60;2.50;;;21.10;99.90;;;;;;5046319;28;20251;-61
2023/07/24 09:15:04;;;;;;;2.37;2.27;;;21.20;99.90;;;;;;5049558;28;20193;-60
2023/07/24 09:17:34;;;;;;;2.80;2.60;;;21.20;99.90;;;;;;5040187;28;20196;-60
2023/07/24 09:20:04;;;;;;;2.42;2.33;;;21.60;99.90;;;;;;5045495;28;20531;-60
2023/07/24 09:22:32;;;;;;;2.97;2.58;;;21.70;83.90;;;;;;5050342;28;20183;-60
2023/07/24 09:25:03;;;;;;;2.90;2.47;;;22.00;68.10;;;;;;5049895;28;20657;-60
2023/07/24 09:27:33;;;;;;;3.13;2.93;;;21.70;83.80;;;;;;5050442;28;20527;-60
2023/07/24 09:30:03;;;;;;;2.40;2.30;;;21.60;87.90;;;;;;5050545;28;20213;-60
2023/07/24 09:32:32;;;;;;;2.50;2.40;;;21.40;82.30;;;;;;5047687;28;20221;-60
2023/07/24 09:35:03;;;;;;;2.60;2.50;;;21.20;44.90;;;;;;5053956;28;20196;-61
2023/07/24 09:37:35;;;;;;;2.53;2.40;;;21.30;43.30;;;;;;5051023;28;20181;-61
2023/07/24 09:40:05;;;;;;;2.70;2.60;;;21.40;16.90;;;;;;5045214;28;20230;-60
2023/07/24 09:42:36;;;;;;;2.80;2.33;;;21.40;47.50;;;;;;5051691;28;20200;-61
2023/07/24 09:45:20;;;;;;;2.93;2.83;;;21.40;32.50;;;;;;5042027;28;20195;-60
2023/07/24 09:47:52;;;;;;;2.60;2.50;;;21.40;52.50;;;;;;5054955;28;20285;-60
2023/07/24 09:50:29;;;;;;;2.80;2.70;;;21.30;37.60;;;;;;5052020;28;20191;-60
2023/07/24 09:52:58;;;;;;;5.07;2.70;;;21.20;52.40;;;;;;5061364;28;20548;-61
2023/07/24 09:55:34;;;;;;;2.87;2.67;;;21.10;53.70;;;;;;5044715;28;20195;-60
2023/07/24 09:58:04;;;;;;;2.97;2.60;;;20.90;56.40;;;;;;5050861;28;20190;-60
2023/07/24 10:00:34;;;;;;;2.77;2.67;;;20.70;60.50;;;;;;5046824;28;20550;-60
2023/07/24 10:03:03;;;;;;;3.23;3.03;;;20.50;54.00;;;;;;5045936;28;20637;-60
2023/07/24 10:05:32;;;;;;;3.53;3.20;;;20.30;76.00;;;;;;5048905;28;20232;-60
2023/07/24 10:08:01;;;;;;;3.07;2.97;;;20.20;68.80;;;;;;5040619;28;20198;-60
2023/07/24 10:10:32;;;;;;;3.27;3.07;;;20.20;78.00;;;;;;5042240;28;20187;-60
2023/07/24 10:13:00;;;;;;;3.60;3.30;;;20.30;94.10;;;;;;5041284;28;20207;-61
2023/07/24 10:15:31;;;;;;;4.03;3.63;;;20.40;89.30;;;;;;5048874;28;20192;-60
2023/07/24 10:18:04;;;;;;;3.53;3.33;;;20.40;90.70;;;;;;5039782;28;20195;-60
2023/07/24 10:20:36;;;;;;;4.10;3.77;;;20.40;98.80;;;;;;5040796;28;20209;-60
2023/07/24 10:23:05;;;;;;;4.30;4.00;;;20.40;99.90;;;;;;5042295;28;20280;-60
2023/07/24 10:25:35;;;;;;;4.80;3.60;;;20.20;94.20;;;;;;5048467;28;20586;-60
2023/07/24 10:28:10;;;;;;;4.23;3.67;;;20.50;93.50;;;;;;5048916;28;20258;-60
2023/07/24 10:30:41;;;;;;;5.07;4.00;;;20.70;92.40;;;;;;5047000;28;20187;-60
2023/07/24 10:33:11;;;;;;;4.47;4.07;;;21.00;80.90;;;;;;5039410;28;20261;-61
2023/07/24 10:35:44;;;;;;;3.80;3.50;;;21.20;74.60;;;;;;5045173;28;20692;-61
2023/07/24 10:38:13;;;;;;;3.63;3.53;;;21.50;76.90;;;;;;5040446;28;20569;-60
2023/07/24 10:40:43;;;;;;;3.90;3.60;;;21.60;6.90;;;;;;5047730;28;20218;-61
2023/07/24 10:43:13;;;;;;;3.53;3.30;;;21.60;24.20;;;;;;5038743;28;20279;-60
2023/07/24 10:45:47;;;;;;;3.70;3.40;;;21.70;1.00;;;;;;5040701;28;20233;-61
2023/07/24 10:48:16;;;;;;;2.97;2.63;;;22.00;12.10;;;;;;5044707;28;20224;-60
2023/07/24 10:50:45;;;;;;;3.33;2.70;;;23.00;1.00;;;;;;5044148;28;20225;-61
2023/07/24 10:53:18;;;;;;;4.13;2.80;;;23.80;1.00;;;;;;5040400;28;20186;-61
2023/07/24 10:55:50;;;;;;;3.08;2.80;;;24.20;1.00;;;;;;5043915;28;20236;-60
2023/07/24 10:58:18;;;;;;;2.60;2.50;;;24.00;1.00;;;;;;5035748;28;20202;-61
2023/07/24 11:00:48;;;;;;;2.67;2.30;;;24.10;1.00;;;;;;5036519;28;20623;-60
2023/07/24 11:03:18;;;;;;;3.38;2.55;;;24.50;1.00;;;;;;5031186;28;20209;-60
2023/07/24 11:05:47;;;;;;;2.30;2.20;;;25.20;1.00;;;;;;5036790;28;20199;-61
2023/07/24 11:08:18;;;;;;;2.40;2.30;;;25.40;99.90;;;;;;5044789;28;20200;-61
2023/07/24 11:10:47;;;;;;;2.70;2.60;;;25.00;1.00;;;;;;5038595;28;20637;-60
2023/07/24 11:13:16;;;;;;;4.18;2.50;;;24.80;1.00;;;;;;5033924;28;20540;-61
2023/07/24 11:15:47;;;;;;;3.40;2.22;;;24.70;1.00;;;;;;5041561;28;20207;-62
2023/07/24 11:18:20;;;;;;;2.92;2.83;;;24.80;99.90;;;;;;5039259;28;20296;-60
2023/07/24 11:20:51;;;;;;;2.70;2.58;;;24.70;1.00;;;;;;5038710;28;20665;-60
2023/07/24 11:23:21;;;;;;;2.90;2.70;;;24.90;1.00;;;;;;5040425;28;20210;-60
2023/07/24 11:25:51;;;;;;;3.10;2.67;;;25.00;1.00;;;;;;5044673;28;20248;-60
2023/07/24 11:28:20;;;;;;;2.72;2.63;;;25.00;99.90;;;;;;5042463;28;20187;-61
2023/07/24 11:30:49;;;;;;;2.72;2.55;;;25.00;99.90;;;;;;5041124;28;20184;-60
2023/07/24 11:33:20;;;;;;;2.60;2.50;;;25.30;99.90;;;;;;5031383;28;20225;-61
2023/07/24 11:35:49;;;;;;;2.97;2.80;;;25.40;99.90;;;;;;5040211;28;20218;-61
2023/07/24 11:38:18;;;;;;;2.72;2.63;;;25.70;99.90;;;;;;5041689;28;20208;-61
2023/07/24 11:40:46;;;;;;;3.58;2.85;;;25.70;99.90;;;;;;5044985;28;20191;-62
2023/07/24 11:43:19;;;;;;;2.90;2.60;;;25.70;96.60;;;;;;5051559;28;20200;-61
2023/07/24 11:45:51;;;;;;;3.55;3.00;;;25.30;1.00;;;;;;5047854;28;20197;-60
2023/07/24 11:48:24;;;;;;;2.85;2.67;;;25.00;99.90;;;;;;5044783;28;20699;-61
2023/07/24 11:50:57;;;;;;;3.15;2.90;;;24.70;1.00;;;;;;5040826;28;20208;-64
2023/07/24 11:53:28;;;;;;;2.73;2.53;;;24.60;1.00;;;;;;5046283;28;20196;-64
2023/07/24 11:55:59;;;;;;;3.23;3.03;;;24.40;99.90;;;;;;5040990;28;20575;-63
2023/07/24 11:58:28;;;;;;;2.80;2.70;;;24.30;99.90;;;;;;5045800;28;20346;-63
2023/07/24 12:00:57;;;;;;;3.23;2.87;;;24.10;99.90;;;;;;5043954;28;20204;-63
2023/07/24 12:03:29;;;;;;;2.83;2.63;;;23.80;99.90;;;;;;5044610;28;20841;-63
2023/07/24 12:05:58;;;;;;;3.10;2.90;;;23.40;1.00;;;;;;5043584;28;20228;-63
2023/07/24 12:08:32;;;;;;;2.80;2.60;;;23.20;1.00;;;;;;5046224;28;20199;-62
2023/07/24 12:11:01;;;;;;;3.73;2.70;;;22.90;1.00;;;;;;5050035;28;20194;-61
2023/07/24 12:13:31;;;;;;;3.00;2.70;;;22.70;1.00;;;;;;5043094;28;20305;-62
2023/07/24 12:15:59;;;;;;;2.67;2.47;;;22.50;1.00;;;;;;5050002;28;20190;-62
2023/07/24 12:18:32;;;;;;;3.73;2.80;;;22.60;1.00;;;;;;5041958;28;20337;-62
2023/07/24 12:21:01;;;;;;;5.17;2.93;;;22.70;1.00;;;;;;5050215;28;20193;-62
2023/07/24 12:23:29;;;;;;;3.17;2.90;;;22.90;1.00;;;;;;5042799;28;20268;-62
2023/07/24 12:25:58;;;;;;;3.10;2.87;;;23.00;1.00;;;;;;5044787;28;20647;-62
2023/07/24 12:28:26;;;;;;;4.43;3.00;;;23.10;1.00;;;;;;5046908;28;20195;-62
2023/07/24 12:30:54;;;;;;;3.30;3.00;;;23.30;1.00;;;;;;5050292;28;20197;-60
2023/07/24 12:33:23;;;;;;;3.00;2.80;;;23.60;1.00;;;;;;5047235;28;20189;-65
2023/07/24 12:35:54;;;;;;;3.17;2.73;;;23.90;1.00;;;;;;5050351;28;20238;-65
2023/07/24 12:38:22;;;;;;;2.77;2.57;;;24.40;1.00;;;;;;5047686;28;20233;-61
2023/07/24 12:40:50;;;;;;;3.07;2.77;;;24.60;1.00;;;;;;5050565;28;20744;-61
2023/07/24 12:43:19;;;;;;;2.97;2.73;;;24.60;1.00;;;;;;5037687;28;20208;-61
2023/07/24 12:45:47;;;;;;;2.83;2.63;;;24.70;1.00;;;;;;5044676;28;20197;-62
2023/07/24 12:48:17;;;;;;;3.97;3.00;;;24.60;1.00;;;;;;5042525;28;20229;-62
2023/07/24 12:50:45;;;;;;;4.27;3.30;;;24.60;1.00;;;;;;5046784;28;20203;-61
2023/07/24 12:53:15;;;;;;;2.93;2.73;;;24.30;1.00;;;;;;5048368;28;20189;-61
2023/07/24 12:55:55;;;;;;;3.30;3.00;;;24.40;1.00;;;;;;5049588;28;20260;-61
2023/07/24 12:58:24;;;;;;;5.50;3.43;;;24.30;99.90;;;;;;5052354;28;20209;-61
2023/07/24 13:00:52;;;;;;;3.60;3.30;;;24.20;1.00;;;;;;5054719;28;20288;-61